Language: 


Des rapports , des résumés tant et plus, au choix de chacun....


Données Historiques de Météogheer
Journalier Rapport pour Janvier 21, 2018 Unitée:  Les deux    Impériale   Métrique
Suivant Jour »
Journalier Hebdomadaire Mensuel Annuel Sur mesure
  Max: Min: Moyenne:
Température: 40.5 °F /  4.7 °C 34.2 °F /  1.2 °C 37 °F /  2.8 °C
Point de rosée: 41 °F /  5.0 °C 33.8 °F /  1.0 °C 37.2 °F /  2.9 °C
Humidité: 98% 94% 98%
Vent: 13mph /  20.9km/h - 3.5mph /  5.6km/h
Rafales: 17.4mph /  28.0km/h - -
Vent- - SSW
Pression: 30 in /  1016.8 hPa 29.7 in /  1006.0 hPa -
Pluie: 0.6 in /  15.2 mm    
Historical Graphs
 
 
Données tabulaires pour Janvier 21, 2018
Heure Température Point de rosée Pression Vent Vent Rafales Humidité Pluie Taux (Horaire) Conditions
00:03 37.9 °F /  3.3 °C 37.4 °F /  3.0 °C 29.7in /  1006.0hPa Calm     98% 0in /  0.0mm
00:08 37.9 °F /  3.3 °C 37.4 °F /  3.0 °C 29.7in /  1006.0hPa Calm   1.3mph /  2.1km/h 98% 0in /  0.0mm
00:13 37.9 °F /  3.3 °C 37.4 °F /  3.0 °C 29.7in /  1006.0hPa Calm   1.3mph /  2.1km/h 98% 0in /  0.0mm
00:18 37.9 °F /  3.3 °C 37.4 °F /  3.0 °C 29.7in /  1007.0hPa Calm     98% 0in /  0.0mm
00:23 37.9 °F /  3.3 °C 37.4 °F /  3.0 °C 29.7in /  1007.0hPa Calm   1.3mph /  2.1km/h 98% 0in /  0.0mm
00:28 37.9 °F /  3.3 °C 37.4 °F /  3.0 °C 29.7in /  1007.0hPa Calm   1.3mph /  2.1km/h 98% 0in /  0.0mm
00:33 38.1 °F /  3.4 °C 37.4 °F /  3.0 °C 29.7in /  1007.0hPa Calm     98% 0in /  0.0mm
00:38 38.1 °F /  3.4 °C 37.4 °F /  3.0 °C 29.7in /  1007.0hPa NW 2.7mph /  4.3km/h 2.7mph /  4.3km/h 98% 0in /  0.0mm
00:43 38.1 °F /  3.4 °C 37.4 °F /  3.0 °C 29.7in /  1007.0hPa West 1.1mph /  1.8km/h 2.7mph /  4.3km/h 98% 0in /  0.0mm
00:48 38.3 °F /  3.5 °C 39.2 °F /  4.0 °C 29.7in /  1006.0hPa WNW 1.6mph /  2.6km/h 3.6mph /  5.8km/h 98% 0in /  0.0mm
00:53 38.5 °F /  3.6 °C 39.2 °F /  4.0 °C 29.7in /  1006.0hPa NNW 3.1mph /  5.0km/h 3.6mph /  5.8km/h 98% 0in /  0.0mm
00:58 38.7 °F /  3.7 °C 39.2 °F /  4.0 °C 29.7in /  1006.0hPa Calm   3.1mph /  5.0km/h 98% 0in /  0.0mm
01:03 38.8 °F /  3.8 °C 39.2 °F /  4.0 °C 29.8in /  1008.0hPa North 4mph /  6.4km/h 5.4mph /  8.7km/h 98% 0.01in /  0.3mm
01:08 38.8 °F /  3.8 °C 39.2 °F /  4.0 °C 29.8in /  1008.0hPa WNW 1.6mph /  2.6km/h 5.4mph /  8.7km/h 98% 0.01in /  0.3mm
01:13 38.8 °F /  3.8 °C 39.2 °F /  4.0 °C 29.8in /  1008.0hPa Calm   4mph /  6.4km/h 98% 0.01in /  0.3mm
01:18 38.8 °F /  3.8 °C 39.2 °F /  4.0 °C 29.8in /  1008.0hPa Calm   3.8mph /  6.1km/h 98% 0.01in /  0.3mm
01:23 39 °F /  3.9 °C 39.2 °F /  4.0 °C 29.8in /  1008.0hPa Calm   2.5mph /  4.0km/h 98% 0.01in /  0.3mm
01:28 38.8 °F /  3.8 °C 39.2 °F /  4.0 °C 29.8in /  1008.0hPa West 0.9mph /  1.4km/h 1.1mph /  1.8km/h 98% 0.01in /  0.3mm
01:33 38.8 °F /  3.8 °C 39.2 °F /  4.0 °C 29.8in /  1009.0hPa Calm   1.6mph /  2.6km/h 98% 0.01in /  0.3mm
01:38 38.8 °F /  3.8 °C 39.2 °F /  4.0 °C 29.8in /  1009.0hPa Calm   1.6mph /  2.6km/h 98% 0.01in /  0.3mm
01:43 38.8 °F /  3.8 °C 39.2 °F /  4.0 °C 29.8in /  1009.0hPa NW 1.3mph /  2.1km/h 3.1mph /  5.0km/h 98% 0.01in /  0.3mm
01:48 38.7 °F /  3.7 °C 39.2 °F /  4.0 °C 29.8in /  1009.0hPa Calm   3.4mph /  5.5km/h 98% 0.01in /  0.3mm
01:53 38.5 °F /  3.6 °C 39.2 °F /  4.0 °C 29.8in /  1009.0hPa NW 1.1mph /  1.8km/h 4.3mph /  6.9km/h 98% 0.01in /  0.3mm
01:58 38.5 °F /  3.6 °C 39.2 °F /  4.0 °C 29.8in /  1009.0hPa Calm   4.3mph /  6.9km/h 98% 0.01in /  0.3mm
02:03 38.3 °F /  3.5 °C 39.2 °F /  4.0 °C 29.8in /  1009.0hPa Calm   3.4mph /  5.5km/h 98% 0in /  0.0mm
02:08 38.3 °F /  3.5 °C 39.2 °F /  4.0 °C 29.8in /  1009.0hPa NNW 3.8mph /  6.1km/h 4.3mph /  6.9km/h 98% 0in /  0.0mm
02:13 38.3 °F /  3.5 °C 39.2 °F /  4.0 °C 29.8in /  1009.0hPa Calm   4.7mph /  7.6km/h 98% 0in /  0.0mm
02:18 38.1 °F /  3.4 °C 37.4 °F /  3.0 °C 29.8in /  1009.0hPa NW 0.9mph /  1.4km/h 4.7mph /  7.6km/h 98% 0in /  0.0mm
02:23 37.9 °F /  3.3 °C 37.4 °F /  3.0 °C 29.8in /  1009.0hPa Calm   3.8mph /  6.1km/h 98% 0in /  0.0mm
02:28 37.9 °F /  3.3 °C 37.4 °F /  3.0 °C 29.8in /  1009.0hPa NW 2.7mph /  4.3km/h 4mph /  6.4km/h 98% 0in /  0.0mm
02:33 37.9 °F /  3.3 °C 37.4 °F /  3.0 °C 29.8in /  1010.0hPa Calm   4mph /  6.4km/h 98% 0in /  0.0mm
02:38 37.6 °F /  3.1 °C 37.4 °F /  3.0 °C 29.8in /  1010.0hPa Calm   3.4mph /  5.5km/h 98% 0in /  0.0mm
02:43 37.6 °F /  3.1 °C 37.4 °F /  3.0 °C 29.8in /  1010.0hPa Calm   2.7mph /  4.3km/h 98% 0in /  0.0mm
02:48 37.4 °F /  3.0 °C 37.4 °F /  3.0 °C 29.8in /  1010.0hPa WNW 2mph /  3.2km/h 3.4mph /  5.5km/h 98% 0in /  0.0mm
02:53 37.2 °F /  2.9 °C 37.4 °F /  3.0 °C 29.8in /  1010.0hPa Calm   3.4mph /  5.5km/h 98% 0in /  0.0mm
02:58 37 °F /  2.8 °C 37.4 °F /  3.0 °C 29.8in /  1010.0hPa Calm   2.7mph /  4.3km/h 98% 0in /  0.0mm
03:03 37 °F /  2.8 °C 37.4 °F /  3.0 °C 29.8in /  1010.0hPa West 2.5mph /  4.0km/h 3.8mph /  6.1km/h 98% 0in /  0.0mm
03:08 37 °F /  2.8 °C 37.4 °F /  3.0 °C 29.8in /  1010.0hPa West 2.9mph /  4.7km/h 4mph /  6.4km/h 98% 0in /  0.0mm
03:13 36.9 °F /  2.7 °C 37.4 °F /  3.0 °C 29.9in /  1011.1hPa Calm   4mph /  6.4km/h 98% 0in /  0.0mm
03:18 36.7 °F /  2.6 °C 37.4 °F /  3.0 °C 29.9in /  1011.1hPa Calm   3.8mph /  6.1km/h 98% 0in /  0.0mm
03:23 36.7 °F /  2.6 °C 37.4 °F /  3.0 °C 29.9in /  1011.1hPa West 3.1mph /  5.0km/h 3.8mph /  6.1km/h 98% 0in /  0.0mm
03:28 36.7 °F /  2.6 °C 37.4 °F /  3.0 °C 29.9in /  1011.1hPa Calm   3.1mph /  5.0km/h 98% 0in /  0.0mm
03:33 36.5 °F /  2.5 °C 37.4 °F /  3.0 °C 29.9in /  1011.1hPa Calm   3.1mph /  5.0km/h 98% 0in /  0.0mm
03:39 36.3 °F /  2.4 °C 37.4 °F /  3.0 °C 29.9in /  1011.1hPa Calm   2.7mph /  4.3km/h 98% 0in /  0.0mm
03:44 36.1 °F /  2.3 °C 37.4 °F /  3.0 °C 29.8in /  1010.0hPa Calm   4mph /  6.4km/h 98% 0in /  0.0mm
03:49 36 °F /  2.2 °C 35.6 °F /  2.0 °C 29.8in /  1010.0hPa West 3.4mph /  5.5km/h 4mph /  6.4km/h 98% 0in /  0.0mm
03:54 35.8 °F /  2.1 °C 35.6 °F /  2.0 °C 29.8in /  1010.0hPa West 0.9mph /  1.4km/h 4mph /  6.4km/h 98% 0in /  0.0mm
03:59 35.8 °F /  2.1 °C 35.6 °F /  2.0 °C 29.8in /  1010.0hPa Calm   4mph /  6.4km/h 98% 0in /  0.0mm
04:04 35.8 °F /  2.1 °C 35.6 °F /  2.0 °C 29.8in /  1010.0hPa West 3.8mph /  6.1km/h 4mph /  6.4km/h 98% 0in /  0.0mm
04:09 35.8 °F /  2.1 °C 35.6 °F /  2.0 °C 29.8in /  1010.0hPa Calm   4.9mph /  7.9km/h 98% 0in /  0.0mm
04:14 35.8 °F /  2.1 °C 35.6 °F /  2.0 °C 29.9in /  1011.1hPa Calm   4.9mph /  7.9km/h 98% 0in /  0.0mm
04:19 35.8 °F /  2.1 °C 35.6 °F /  2.0 °C 29.9in /  1011.1hPa West 1.6mph /  2.6km/h 2.5mph /  4.0km/h 98% 0in /  0.0mm
04:24 35.6 °F /  2.0 °C 35.6 °F /  2.0 °C 29.9in /  1011.1hPa Calm   2.9mph /  4.7km/h 98% 0in /  0.0mm
04:29 35.6 °F /  2.0 °C 35.6 °F /  2.0 °C 29.9in /  1011.1hPa Calm   2.9mph /  4.7km/h 98% 0in /  0.0mm
04:34 35.6 °F /  2.0 °C 35.6 °F /  2.0 °C 29.9in /  1011.1hPa Calm     98% 0in /  0.0mm
04:39 35.4 °F /  1.9 °C 35.6 °F /  2.0 °C 29.9in /  1011.1hPa West 3.8mph /  6.1km/h 3.8mph /  6.1km/h 98% 0in /  0.0mm
04:44 35.4 °F /  1.9 °C 35.6 °F /  2.0 °C 29.9in /  1012.1hPa West 3.4mph /  5.5km/h 4.7mph /  7.6km/h 98% 0in /  0.0mm
04:49 35.4 °F /  1.9 °C 35.6 °F /  2.0 °C 29.9in /  1012.1hPa Calm   4.7mph /  7.6km/h 98% 0in /  0.0mm
04:54 35.6 °F /  2.0 °C 35.6 °F /  2.0 °C 29.9in /  1012.1hPa West 3.1mph /  5.0km/h 4.3mph /  6.9km/h 98% 0in /  0.0mm
04:59 35.6 °F /  2.0 °C 35.6 °F /  2.0 °C 29.9in /  1012.1hPa WNW 1.1mph /  1.8km/h 4.3mph /  6.9km/h 98% 0in /  0.0mm
05:04 35.6 °F /  2.0 °C 35.6 °F /  2.0 °C 29.9in /  1012.1hPa Calm   2.9mph /  4.7km/h 98% 0in /  0.0mm
05:09 35.4 °F /  1.9 °C 35.6 °F /  2.0 °C 29.9in /  1012.1hPa Calm   2.7mph /  4.3km/h 98% 0in /  0.0mm
05:14 35.4 °F /  1.9 °C 35.6 °F /  2.0 °C 29.9in /  1013.1hPa Calm   1.6mph /  2.6km/h 98% 0in /  0.0mm
05:19 35.4 °F /  1.9 °C 35.6 °F /  2.0 °C 29.9in /  1013.1hPa Calm     98% 0in /  0.0mm
05:24 35.2 °F /  1.8 °C 35.6 °F /  2.0 °C 29.9in /  1013.1hPa Calm     98% 0in /  0.0mm
05:29 35.1 °F /  1.7 °C 35.6 °F /  2.0 °C 29.9in /  1013.1hPa Calm   1.6mph /  2.6km/h 98% 0in /  0.0mm
05:34 34.9 °F /  1.6 °C 35.6 °F /  2.0 °C 29.9in /  1013.1hPa WNW 3.1mph /  5.0km/h 3.1mph /  5.0km/h 98% 0in /  0.0mm
05:39 34.9 °F /  1.6 °C 35.6 °F /  2.0 °C 29.9in /  1013.1hPa Calm   3.1mph /  5.0km/h 98% 0in /  0.0mm
05:44 34.7 °F /  1.5 °C 35.6 °F /  2.0 °C 29.9in /  1013.1hPa Calm   3.1mph /  5.0km/h 98% 0in /  0.0mm
05:49 34.5 °F /  1.4 °C 33.8 °F /  1.0 °C 29.9in /  1013.1hPa Calm   2.7mph /  4.3km/h 98% 0in /  0.0mm
05:54 34.5 °F /  1.4 °C 33.8 °F /  1.0 °C 29.9in /  1013.1hPa Calm   2.7mph /  4.3km/h 98% 0in /  0.0mm
05:59 34.5 °F /  1.4 °C 33.8 °F /  1.0 °C 29.9in /  1014.1hPa Calm   2mph /  3.2km/h 98% 0in /  0.0mm
06:04 34.5 °F /  1.4 °C 33.8 °F /  1.0 °C 29.9in /  1014.1hPa Calm     98% 0in /  0.0mm
06:07 34.5 °F /  1.4 °C 33.8 °F /  1.0 °C 29.9in /  1014.1hPa Calm     98% 0in /  0.0mm
06:12 34.5 °F /  1.4 °C 33.8 °F /  1.0 °C 29.9in /  1014.1hPa Calm   2.5mph /  4.0km/h 98% 0.01in /  0.3mm
06:17 34.3 °F /  1.3 °C 33.8 °F /  1.0 °C 29.9in /  1013.1hPa Calm   2.5mph /  4.0km/h 98% 0.01in /  0.3mm
06:22 34.3 °F /  1.3 °C 33.8 °F /  1.0 °C 29.9in /  1013.1hPa Calm   1.6mph /  2.6km/h 98% 0.01in /  0.3mm
06:27 34.2 °F /  1.2 °C 33.8 °F /  1.0 °C 29.9in /  1013.1hPa WSW 4mph /  6.4km/h 4mph /  6.4km/h 98% 0.01in /  0.3mm
06:32 34.3 °F /  1.3 °C 33.8 °F /  1.0 °C 29.9in /  1013.1hPa WSW 4mph /  6.4km/h 4.9mph /  7.9km/h 98% 0.01in /  0.3mm
06:37 34.3 °F /  1.3 °C 33.8 °F /  1.0 °C 29.9in /  1013.1hPa Calm   4.9mph /  7.9km/h 98% 0.01in /  0.3mm
06:47 34.9 °F /  1.6 °C 35.6 °F /  2.0 °C 29.9in /  1013.1hPa Calm   4.3mph /  6.9km/h 98% 0.01in /  0.3mm
06:52 34.9 °F /  1.6 °C 35.6 °F /  2.0 °C 29.9in /  1013.1hPa Calm   4mph /  6.4km/h 98% 0.01in /  0.3mm
07:02 34.9 °F /  1.6 °C 35.6 °F /  2.0 °C 29.9in /  1013.1hPa Calm   3.1mph /  5.0km/h 98% 0.01in /  0.3mm
07:08 34.9 °F /  1.6 °C 35.6 °F /  2.0 °C 29.9in /  1013.1hPa West 2.2mph /  3.5km/h 3.8mph /  6.1km/h 98% 0in /  0.0mm
07:13 34.9 °F /  1.6 °C 35.6 °F /  2.0 °C 29.9in /  1013.1hPa Calm   3.8mph /  6.1km/h 98% 0in /  0.0mm
07:23 35.1 °F /  1.7 °C 35.6 °F /  2.0 °C 29.9in /  1013.1hPa Calm   2.5mph /  4.0km/h 98% 0in /  0.0mm
07:28 35.1 °F /  1.7 °C 35.6 °F /  2.0 °C 29.9in /  1013.1hPa West 4mph /  6.4km/h 4mph /  6.4km/h 98% 0in /  0.0mm
07:33 35.1 °F /  1.7 °C 35.6 °F /  2.0 °C 29.9in /  1014.1hPa West 2.7mph /  4.3km/h 4mph /  6.4km/h 98% 0in /  0.0mm
07:43 35.1 °F /  1.7 °C 35.6 °F /  2.0 °C 29.9in /  1014.1hPa Calm   4mph /  6.4km/h 98% 0in /  0.0mm
07:48 34.9 °F /  1.6 °C 35.6 °F /  2.0 °C 29.9in /  1014.1hPa West 3.6mph /  5.8km/h 3.8mph /  6.1km/h 98% 0in /  0.0mm
07:53 35.1 °F /  1.7 °C 35.6 °F /  2.0 °C 29.9in /  1014.1hPa West 2mph /  3.2km/h 4mph /  6.4km/h 98% 0in /  0.0mm
07:58 35.1 °F /  1.7 °C 35.6 °F /  2.0 °C 29.9in /  1014.1hPa Calm   4mph /  6.4km/h 98% 0in /  0.0mm
08:08 34.5 °F /  1.4 °C 33.8 °F /  1.0 °C 30in /  1015.1hPa Calm   4mph /  6.4km/h 98% 0in /  0.0mm
08:13 34.5 °F /  1.4 °C 33.8 °F /  1.0 °C 30in /  1015.1hPa Calm   4mph /  6.4km/h 98% 0in /  0.0mm
08:23 34.5 °F /  1.4 °C 33.8 °F /  1.0 °C 30in /  1015.1hPa WSW 3.8mph /  6.1km/h 4.3mph /  6.9km/h 98% 0in /  0.0mm
08:28 34.5 °F /  1.4 °C 33.8 °F /  1.0 °C 30in /  1015.1hPa Calm   4.3mph /  6.9km/h 98% 0in /  0.0mm
08:34 34.7 °F /  1.5 °C 35.6 °F /  2.0 °C 30in /  1015.1hPa Calm   4.3mph /  6.9km/h 98% 0in /  0.0mm
08:44 34.9 °F /  1.6 °C 35.6 °F /  2.0 °C 29.9in /  1014.1hPa Calm     98% 0in /  0.0mm
08:49 34.9 °F /  1.6 °C 35.6 °F /  2.0 °C 29.9in /  1014.1hPa Calm   4.3mph /  6.9km/h 98% 0in /  0.0mm
08:54 35.1 °F /  1.7 °C 35.6 °F /  2.0 °C 29.9in /  1014.1hPa WSW 3.8mph /  6.1km/h 4.3mph /  6.9km/h 98% 0in /  0.0mm
08:59 35.1 °F /  1.7 °C 35.6 °F /  2.0 °C 29.9in /  1014.1hPa West 4mph /  6.4km/h 4.7mph /  7.6km/h 98% 0in /  0.0mm
09:14 35.4 °F /  1.9 °C 35.6 °F /  2.0 °C 30in /  1015.1hPa WSW 3.6mph /  5.8km/h 4.3mph /  6.9km/h 98% 0in /  0.0mm
09:19 35.4 °F /  1.9 °C 35.6 °F /  2.0 °C 30in /  1015.1hPa Calm   4.3mph /  6.9km/h 98% 0in /  0.0mm
09:24 35.4 °F /  1.9 °C 35.6 °F /  2.0 °C 30in /  1015.1hPa Calm   4.3mph /  6.9km/h 98% 0in /  0.0mm
09:34 35.6 °F /  2.0 °C 35.6 °F /  2.0 °C 30in /  1015.1hPa Calm     98% 0in /  0.0mm
09:39 35.8 °F /  2.1 °C 35.6 °F /  2.0 °C 30in /  1015.1hPa Calm   4mph /  6.4km/h 98% 0in /  0.0mm
09:44 35.8 °F /  2.1 °C 35.6 °F /  2.0 °C 30in /  1015.1hPa Calm   4mph /  6.4km/h 98% 0in /  0.0mm
09:54 36 °F /  2.2 °C 35.6 °F /  2.0 °C 30in /  1016.1hPa Calm     98% 0in /  0.0mm
09:59 36.1 °F /  2.3 °C 37.4 °F /  3.0 °C 30in /  1016.1hPa Calm   4.3mph /  6.9km/h 98% 0in /  0.0mm
10:04 36.3 °F /  2.4 °C 37.4 °F /  3.0 °C 30in /  1016.1hPa WSW 3.1mph /  5.0km/h 4.3mph /  6.9km/h 98% 0in /  0.0mm
10:10 36.3 °F /  2.4 °C 37.4 °F /  3.0 °C 30in /  1016.1hPa Calm   4.3mph /  6.9km/h 98% 0in /  0.0mm
10:15 36.5 °F /  2.5 °C 37.4 °F /  3.0 °C 30in /  1016.1hPa Calm   4.3mph /  6.9km/h 98% 0in /  0.0mm
10:20 36.7 °F /  2.6 °C 37.4 °F /  3.0 °C 30in /  1016.1hPa West 3.4mph /  5.5km/h 4.9mph /  7.9km/h 98% 0in /  0.0mm
10:25 36.7 °F /  2.6 °C 37.4 °F /  3.0 °C 30in /  1016.1hPa WSW 3.1mph /  5.0km/h 5.8mph /  9.3km/h 98% 0in /  0.0mm
10:30 36.9 °F /  2.7 °C 37.4 °F /  3.0 °C 30in /  1016.1hPa Calm   6mph /  9.7km/h 98% 0in /  0.0mm
10:35 37 °F /  2.8 °C 37.4 °F /  3.0 °C 30in /  1016.1hPa Calm   6mph /  9.7km/h 98% 0in /  0.0mm
10:40 37 °F /  2.8 °C 37.4 °F /  3.0 °C 30in /  1016.1hPa WSW 3.8mph /  6.1km/h 5.8mph /  9.3km/h 98% 0in /  0.0mm
10:45 37.4 °F /  3.0 °C 37.4 °F /  3.0 °C 30in /  1016.8hPa WSW 4.3mph /  6.9km/h 5.8mph /  9.3km/h 98% 0in /  0.0mm
10:50 37.4 °F /  3.0 °C 37.4 °F /  3.0 °C 30in /  1016.8hPa WSW 2.7mph /  4.3km/h 6mph /  9.7km/h 98% 0in /  0.0mm
10:55 37.4 °F /  3.0 °C 37.4 °F /  3.0 °C 30in /  1016.8hPa Calm   6.3mph /  10.1km/h 98% 0in /  0.0mm
11:00 37.4 °F /  3.0 °C 37.4 °F /  3.0 °C 30in /  1016.8hPa WSW 6.3mph /  10.1km/h 7.2mph /  11.6km/h 98% 0in /  0.0mm
11:05 37.4 °F /  3.0 °C 37.4 °F /  3.0 °C 30in /  1016.8hPa West 5.8mph /  9.3km/h 7.6mph /  12.2km/h 98% 0in /  0.0mm
11:10 37.6 °F /  3.1 °C 37.4 °F /  3.0 °C 30in /  1016.8hPa WSW 4.3mph /  6.9km/h 7.6mph /  12.2km/h 98% 0in /  0.0mm
11:15 37.8 °F /  3.2 °C 37.4 °F /  3.0 °C 30in /  1016.8hPa West 4.7mph /  7.6km/h 6.5mph /  10.5km/h 98% 0in /  0.0mm
11:20 37.9 °F /  3.3 °C 37.4 °F /  3.0 °C 30in /  1016.8hPa SSW 4.3mph /  6.9km/h 5.8mph /  9.3km/h 98% 0in /  0.0mm
11:25 37.9 °F /  3.3 °C 37.4 °F /  3.0 °C 30in /  1016.8hPa WSW 2.5mph /  4.0km/h 5.8mph /  9.3km/h 98% 0in /  0.0mm
11:30 38.1 °F /  3.4 °C 37.4 °F /  3.0 °C 30in /  1016.1hPa Calm   5.8mph /  9.3km/h 98% 0in /  0.0mm
11:35 38.1 °F /  3.4 °C 37.4 °F /  3.0 °C 30in /  1016.1hPa WSW 3.6mph /  5.8km/h 5.4mph /  8.7km/h 98% 0in /  0.0mm
11:40 38.5 °F /  3.6 °C 39.2 °F /  4.0 °C 30in /  1016.1hPa WSW 4.7mph /  7.6km/h 5.4mph /  8.7km/h 98% 0in /  0.0mm
11:45 38.5 °F /  3.6 °C 39.2 °F /  4.0 °C 30in /  1016.8hPa WSW 1.3mph /  2.1km/h 5.8mph /  9.3km/h 98% 0in /  0.0mm
11:50 38.5 °F /  3.6 °C 39.2 °F /  4.0 °C 30in /  1016.8hPa WSW 1.1mph /  1.8km/h 5.8mph /  9.3km/h 98% 0in /  0.0mm
11:55 38.5 °F /  3.6 °C 39.2 °F /  4.0 °C 30in /  1016.8hPa WSW 4.3mph /  6.9km/h 6.5mph /  10.5km/h 98% 0in /  0.0mm
12:00 38.7 °F /  3.7 °C 39.2 °F /  4.0 °C 30in /  1016.1hPa WSW 6.3mph /  10.1km/h 6.5mph /  10.5km/h 98% 0in /  0.0mm
12:05 38.7 °F /  3.7 °C 39.2 °F /  4.0 °C 30in /  1016.1hPa Calm   6.3mph /  10.1km/h 98% 0in /  0.0mm
12:10 38.8 °F /  3.8 °C 39.2 °F /  4.0 °C 30in /  1016.1hPa Calm   6.3mph /  10.1km/h 98% 0in /  0.0mm
12:15 38.8 °F /  3.8 °C 39.2 °F /  4.0 °C 30in /  1016.1hPa Calm   5.6mph /  9.0km/h 98% 0in /  0.0mm
12:20 38.8 °F /  3.8 °C 39.2 °F /  4.0 °C 30in /  1016.1hPa Calm   5.6mph /  9.0km/h 98% 0in /  0.0mm
12:25 39 °F /  3.9 °C 39.2 °F /  4.0 °C 30in /  1016.1hPa South 2mph /  3.2km/h 4.5mph /  7.2km/h 98% 0in /  0.0mm
12:30 39.2 °F /  4.0 °C 39.2 °F /  4.0 °C 30in /  1016.1hPa SW 4mph /  6.4km/h 4mph /  6.4km/h 98% 0in /  0.0mm
12:35 39.4 °F /  4.1 °C 39.2 °F /  4.0 °C 30in /  1016.1hPa WSW 1.6mph /  2.6km/h 5.6mph /  9.0km/h 98% 0in /  0.0mm
12:40 39.6 °F /  4.2 °C 39.2 °F /  4.0 °C 30in /  1016.1hPa SW 1.1mph /  1.8km/h 5.6mph /  9.0km/h 98% 0in /  0.0mm
12:45 39.7 °F /  4.3 °C 39.2 °F /  4.0 °C 30in /  1015.1hPa South 2.9mph /  4.7km/h 4mph /  6.4km/h 98% 0in /  0.0mm
12:50 39.7 °F /  4.3 °C 39.2 °F /  4.0 °C 30in /  1015.1hPa SSW 5.8mph /  9.3km/h 6.5mph /  10.5km/h 98% 0in /  0.0mm
12:55 39.9 °F /  4.4 °C 39.2 °F /  4.0 °C 30in /  1015.1hPa SSW 5.4mph /  8.7km/h 6.5mph /  10.5km/h 98% 0in /  0.0mm
13:00 39.9 °F /  4.4 °C 39.2 °F /  4.0 °C 30in /  1015.1hPa WSW 4.7mph /  7.6km/h 6.5mph /  10.5km/h 98% 0in /  0.0mm
13:05 40.1 °F /  4.5 °C 41 °F /  5.0 °C 30in /  1015.1hPa SSW 7.8mph /  12.6km/h 7.8mph /  12.6km/h 98% 0in /  0.0mm
13:11 40.1 °F /  4.5 °C 41 °F /  5.0 °C 30in /  1015.1hPa SSW 2.2mph /  3.5km/h 8.1mph /  13.0km/h 98% 0in /  0.0mm
13:16 40.1 °F /  4.5 °C 41 °F /  5.0 °C 30in /  1015.1hPa SSW 4.3mph /  6.9km/h 8.1mph /  13.0km/h 98% 0in /  0.0mm
13:21 40.1 °F /  4.5 °C 41 °F /  5.0 °C 30in /  1015.1hPa WSW 4.7mph /  7.6km/h 9.6mph /  15.4km/h 98% 0in /  0.0mm
13:26 40.3 °F /  4.6 °C 41 °F /  5.0 °C 30in /  1015.1hPa WSW 3.6mph /  5.8km/h 9.6mph /  15.4km/h 98% 0in /  0.0mm
13:31 40.5 °F /  4.7 °C 41 °F /  5.0 °C 30in /  1015.1hPa West 6.3mph /  10.1km/h 6.3mph /  10.1km/h 98% 0in /  0.0mm
13:36 40.3 °F /  4.6 °C 41 °F /  5.0 °C 30in /  1015.1hPa WSW 10.3mph /  16.6km/h 11mph /  17.7km/h 98% 0in /  0.0mm
13:41 39.9 °F /  4.4 °C 39.2 °F /  4.0 °C 30in /  1015.1hPa SW 6.5mph /  10.5km/h 11mph /  17.7km/h 98% 0in /  0.0mm
13:46 39.9 °F /  4.4 °C 39.2 °F /  4.0 °C 30in /  1015.1hPa WSW 8.1mph /  13.0km/h 10.7mph /  17.2km/h 98% 0in /  0.0mm
13:51 39.9 °F /  4.4 °C 39.2 °F /  4.0 °C 30in /  1015.1hPa SW 7.6mph /  12.2km/h 8.5mph /  13.7km/h 98% 0in /  0.0mm
13:56 39.9 °F /  4.4 °C 39.2 °F /  4.0 °C 30in /  1015.1hPa WSW 10.7mph /  17.2km/h 10.7mph /  17.2km/h 98% 0in /  0.0mm
14:01 39.7 °F /  4.3 °C 39.2 °F /  4.0 °C 30in /  1015.1hPa SW 8.5mph /  13.7km/h 10.7mph /  17.2km/h 97% 0in /  0.0mm
14:06 39.6 °F /  4.2 °C 39.2 °F /  4.0 °C 30in /  1015.1hPa WSW 7.4mph /  11.9km/h 10.7mph /  17.2km/h 96% 0in /  0.0mm
14:11 39.4 °F /  4.1 °C 37.4 °F /  3.0 °C 30in /  1015.1hPa WSW 7.4mph /  11.9km/h 10.7mph /  17.2km/h 94% 0in /  0.0mm
14:16 39.2 °F /  4.0 °C 37.4 °F /  3.0 °C 30in /  1015.1hPa SSW 5.8mph /  9.3km/h 10.7mph /  17.2km/h 94% 0in /  0.0mm
14:21 39 °F /  3.9 °C 37.4 °F /  3.0 °C 30in /  1015.1hPa WSW 9.4mph /  15.1km/h 9.4mph /  15.1km/h 94% 0in /  0.0mm
14:26 38.8 °F /  3.8 °C 37.4 °F /  3.0 °C 30in /  1015.1hPa SW 6.5mph /  10.5km/h 9.4mph /  15.1km/h 94% 0in /  0.0mm
14:31 38.7 °F /  3.7 °C 37.4 °F /  3.0 °C 30in /  1015.1hPa SSW 7.6mph /  12.2km/h 10.7mph /  17.2km/h 94% 0in /  0.0mm
14:37 38.5 °F /  3.6 °C 37.4 °F /  3.0 °C 30in /  1015.1hPa SW 6.5mph /  10.5km/h 10.7mph /  17.2km/h 94% 0in /  0.0mm
14:42 38.3 °F /  3.5 °C 37.4 °F /  3.0 °C 30in /  1015.1hPa SSW 6.3mph /  10.1km/h 7.6mph /  12.2km/h 95% 0in /  0.0mm
14:47 38.1 °F /  3.4 °C 37.4 °F /  3.0 °C 30in /  1015.1hPa SSW 7.2mph /  11.6km/h 7.2mph /  11.6km/h 95% 0in /  0.0mm
14:52 37.9 °F /  3.3 °C 37.4 °F /  3.0 °C 30in /  1015.1hPa SSW 7.8mph /  12.6km/h 9.8mph /  15.8km/h 95% 0.01in /  0.3mm
14:57 37.8 °F /  3.2 °C 37.4 °F /  3.0 °C 30in /  1015.1hPa SSW 5.4mph /  8.7km/h 9.8mph /  15.8km/h 96% 0.01in /  0.3mm
15:02 37.4 °F /  3.0 °C 37.4 °F /  3.0 °C 30in /  1015.1hPa SSW 6.3mph /  10.1km/h 9.6mph /  15.4km/h 96% 0.01in /  0.3mm
15:07 37.4 °F /  3.0 °C 37.4 °F /  3.0 °C 30in /  1015.1hPa SSW 6mph /  9.7km/h 9.6mph /  15.4km/h 96% 0.02in /  0.5mm
15:12 37.2 °F /  2.9 °C 37.4 °F /  3.0 °C 30in /  1015.1hPa SSW 2.9mph /  4.7km/h 6mph /  9.7km/h 97% 0.02in /  0.5mm
15:17 37 °F /  2.8 °C 37.4 °F /  3.0 °C 30in /  1015.1hPa South 5.4mph /  8.7km/h 8.9mph /  14.3km/h 98% 0.02in /  0.5mm
15:22 36.9 °F /  2.7 °C 37.4 °F /  3.0 °C 30in /  1015.1hPa South 4.9mph /  7.9km/h 8.9mph /  14.3km/h 98% 0.03in /  0.8mm
15:27 36.9 °F /  2.7 °C 37.4 °F /  3.0 °C 30in /  1015.1hPa WSW 6mph /  9.7km/h 8.1mph /  13.0km/h 98% 0.03in /  0.8mm
15:32 36.7 °F /  2.6 °C 37.4 °F /  3.0 °C 30in /  1015.1hPa SSE 4mph /  6.4km/h 8.1mph /  13.0km/h 98% 0.03in /  0.8mm
15:37 36.7 °F /  2.6 °C 37.4 °F /  3.0 °C 30in /  1015.1hPa South 6mph /  9.7km/h 9.2mph /  14.8km/h 98% 0.05in /  1.3mm
15:42 36.7 °F /  2.6 °C 37.4 °F /  3.0 °C 30in /  1015.1hPa SSW 4mph /  6.4km/h 9.2mph /  14.8km/h 98% 0.05in /  1.3mm
15:47 36.7 °F /  2.6 °C 37.4 °F /  3.0 °C 30in /  1015.1hPa SSE 2.7mph /  4.3km/h 10.7mph /  17.2km/h 98% 0.05in /  1.3mm
15:52 36.5 °F /  2.5 °C 37.4 °F /  3.0 °C 30in /  1015.1hPa SSE 4.9mph /  7.9km/h 11mph /  17.7km/h 98% 0.03in /  0.8mm
15:58 36.5 °F /  2.5 °C 37.4 °F /  3.0 °C 30in /  1015.1hPa SSE 6mph /  9.7km/h 11mph /  17.7km/h 98% 0.05in /  1.3mm
16:03 36.5 °F /  2.5 °C 37.4 °F /  3.0 °C 29.9in /  1014.1hPa SSE 6.5mph /  10.5km/h 10.3mph /  16.6km/h 98% 0.05in /  1.3mm
16:08 36.3 °F /  2.4 °C 37.4 °F /  3.0 °C 29.9in /  1014.1hPa South 4mph /  6.4km/h 10.3mph /  16.6km/h 98% 0.04in /  1.0mm
16:13 36.3 °F /  2.4 °C 37.4 °F /  3.0 °C 29.9in /  1014.1hPa SSE 13mph /  20.9km/h 13mph /  20.9km/h 98% 0.04in /  1.0mm
16:18 36.3 °F /  2.4 °C 37.4 °F /  3.0 °C 29.9in /  1014.1hPa SE 7.6mph /  12.2km/h 13mph /  20.9km/h 98% 0.04in /  1.0mm
16:23 36.1 °F /  2.3 °C 37.4 °F /  3.0 °C 29.9in /  1014.1hPa SE 6mph /  9.7km/h 13mph /  20.9km/h 98% 0.04in /  1.0mm
16:28 36.3 °F /  2.4 °C 37.4 °F /  3.0 °C 29.9in /  1014.1hPa SSE 5.8mph /  9.3km/h 10.3mph /  16.6km/h 98% 0.04in /  1.0mm
16:33 36.1 °F /  2.3 °C 37.4 °F /  3.0 °C 29.9in /  1014.1hPa SSE 8.1mph /  13.0km/h 8.1mph /  13.0km/h 98% 0.04in /  1.0mm
16:38 36.1 °F /  2.3 °C 37.4 °F /  3.0 °C 29.9in /  1014.1hPa Calm   10.3mph /  16.6km/h 98% 0.03in /  0.8mm
16:43 36.1 °F /  2.3 °C 37.4 °F /  3.0 °C 29.9in /  1014.1hPa SSE 7.6mph /  12.2km/h 10.3mph /  16.6km/h 98% 0.04in /  1.0mm
16:48 36.1 °F /  2.3 °C 37.4 °F /  3.0 °C 29.9in /  1014.1hPa SSE 5.8mph /  9.3km/h 8.7mph /  14.0km/h 98% 0.04in /  1.0mm
16:53 36.1 °F /  2.3 °C 37.4 °F /  3.0 °C 29.9in /  1014.1hPa SE 7.6mph /  12.2km/h 9.6mph /  15.4km/h 98% 0.04in /  1.0mm
16:58 36.1 °F /  2.3 °C 37.4 °F /  3.0 °C 29.9in /  1014.1hPa SSE 4.3mph /  6.9km/h 9.8mph /  15.8km/h 98% 0.03in /  0.8mm
17:03 36.1 °F /  2.3 °C 37.4 °F /  3.0 °C 29.9in /  1013.1hPa SSE 5.4mph /  8.7km/h 15.4mph /  24.8km/h 98% 0.03in /  0.8mm
17:08 36.1 °F /  2.3 °C 37.4 °F /  3.0 °C 29.9in /  1013.1hPa SE 8.5mph /  13.7km/h 15.4mph /  24.8km/h 98% 0.03in /  0.8mm
17:13 36 °F /  2.2 °C 35.6 °F /  2.0 °C 29.9in /  1013.1hPa SE 8.5mph /  13.7km/h 13mph /  20.9km/h 98% 0.03in /  0.8mm
17:18 36 °F /  2.2 °C 35.6 °F /  2.0 °C 29.9in /  1013.1hPa SE 8.5mph /  13.7km/h 8.5mph /  13.7km/h 98% 0.05in /  1.3mm
17:23 36 °F /  2.2 °C 35.6 °F /  2.0 °C 29.9in /  1013.1hPa SE 8.5mph /  13.7km/h 8.5mph /  13.7km/h 98% 0.03in /  0.8mm
17:28 35.8 °F /  2.1 °C 35.6 °F /  2.0 °C 29.9in /  1013.1hPa SE 8.5mph /  13.7km/h 8.5mph /  13.7km/h 98% 0.03in /  0.8mm
17:34 35.8 °F /  2.1 °C 35.6 °F /  2.0 °C 29.9in /  1013.1hPa SE 8.5mph /  13.7km/h 8.5mph /  13.7km/h 98% 0.03in /  0.8mm
17:39 35.8 °F /  2.1 °C 35.6 °F /  2.0 °C 29.9in /  1013.1hPa SE 8.5mph /  13.7km/h 8.5mph /  13.7km/h 98% 0.05in /  1.3mm
17:44 36 °F /  2.2 °C 35.6 °F /  2.0 °C 29.9in /  1013.1hPa SE 8.5mph /  13.7km/h 8.5mph /  13.7km/h 98% 0.03in /  0.8mm
17:49 36 °F /  2.2 °C 35.6 °F /  2.0 °C 29.9in /  1013.1hPa SE 8.5mph /  13.7km/h 8.5mph /  13.7km/h 98% 0.03in /  0.8mm
17:54 36 °F /  2.2 °C 35.6 °F /  2.0 °C 29.9in /  1013.1hPa SE 8.5mph /  13.7km/h 8.5mph /  13.7km/h 98% 0.03in /  0.8mm
17:59 36.1 °F /  2.3 °C 37.4 °F /  3.0 °C 29.9in /  1013.1hPa SE 8.5mph /  13.7km/h 8.5mph /  13.7km/h 98% 0.02in /  0.5mm
18:04 36.1 °F /  2.3 °C 37.4 °F /  3.0 °C 29.9in /  1013.1hPa SE 8.5mph /  13.7km/h 8.5mph /  13.7km/h 98% 0.02in /  0.5mm
18:09 36.1 °F /  2.3 °C 37.4 °F /  3.0 °C 29.9in /  1013.1hPa SE 8.5mph /  13.7km/h 8.5mph /  13.7km/h 98% 0.02in /  0.5mm
18:14 36.1 °F /  2.3 °C 37.4 °F /  3.0 °C 29.9in /  1012.1hPa SE 8.5mph /  13.7km/h 8.5mph /  13.7km/h 98% 0.01in /  0.3mm
18:19 36.1 °F /  2.3 °C 37.4 °F /  3.0 °C 29.9in /  1012.1hPa SE 8.5mph /  13.7km/h 8.5mph /  13.7km/h 98% 0.02in /  0.5mm
18:24 36.1 °F /  2.3 °C 37.4 °F /  3.0 °C 29.9in /  1012.1hPa SSE 8.7mph /  14.0km/h 8.7mph /  14.0km/h 98% 0.02in /  0.5mm
18:29 36.1 °F /  2.3 °C 37.4 °F /  3.0 °C 29.9in /  1011.1hPa South 7.6mph /  12.2km/h 9.4mph /  15.1km/h 98% 0.02in /  0.5mm
18:34 36.3 °F /  2.4 °C 37.4 °F /  3.0 °C 29.9in /  1011.1hPa South 7.6mph /  12.2km/h 9.4mph /  15.1km/h 98% 0.02in /  0.5mm
18:39 36.3 °F /  2.4 °C 37.4 °F /  3.0 °C 29.9in /  1011.1hPa South 7.6mph /  12.2km/h 7.6mph /  12.2km/h 98% 0.03in /  0.8mm
18:44 36.3 °F /  2.4 °C 37.4 °F /  3.0 °C 29.9in /  1011.1hPa South 7.6mph /  12.2km/h 7.6mph /  12.2km/h 98% 0.03in /  0.8mm
18:49 36.3 °F /  2.4 °C 37.4 °F /  3.0 °C 29.9in /  1011.1hPa South 7.6mph /  12.2km/h 7.6mph /  12.2km/h 98% 0.03in /  0.8mm
18:54 36.5 °F /  2.5 °C 37.4 °F /  3.0 °C 29.9in /  1011.1hPa South 7.6mph /  12.2km/h 7.6mph /  12.2km/h 98% 0.03in /  0.8mm
18:59 36.5 °F /  2.5 °C 37.4 °F /  3.0 °C 29.9in /  1011.1hPa South 7.6mph /  12.2km/h 7.6mph /  12.2km/h 98% 0.03in /  0.8mm
19:04 36.7 °F /  2.6 °C 37.4 °F /  3.0 °C 29.9in /  1011.1hPa SSE 10.3mph /  16.6km/h 10.3mph /  16.6km/h 98% 0.04in /  1.0mm
19:09 36.7 °F /  2.6 °C 37.4 °F /  3.0 °C 29.9in /  1011.1hPa SSE 10.3mph /  16.6km/h 10.3mph /  16.6km/h 98% 0.04in /  1.0mm
19:14 36.7 °F /  2.6 °C 37.4 °F /  3.0 °C 29.9in /  1011.1hPa SE 8.5mph /  13.7km/h 10.3mph /  16.6km/h 98% 0.04in /  1.0mm
19:19 36.7 °F /  2.6 °C 37.4 °F /  3.0 °C 29.9in /  1011.1hPa SE 3.8mph /  6.1km/h 10.3mph /  16.6km/h 98% 0.03in /  0.8mm
19:24 36.7 °F /  2.6 °C 37.4 °F /  3.0 °C 29.9in /  1011.1hPa South 8.1mph /  13.0km/h 10.3mph /  16.6km/h 98% 0.03in /  0.8mm
19:29 36.7 °F /  2.6 °C 37.4 °F /  3.0 °C 29.8in /  1010.0hPa SSE 10.1mph /  16.3km/h 17.4mph /  28.0km/h 98% 0.04in /  1.0mm
19:34 36.7 °F /  2.6 °C 37.4 °F /  3.0 °C 29.8in /  1010.0hPa SSE 12.5mph /  20.1km/h 17.4mph /  28.0km/h 98% 0.04in /  1.0mm
19:39 36.9 °F /  2.7 °C 37.4 °F /  3.0 °C 29.8in /  1010.0hPa SSE 8.5mph /  13.7km/h 17mph /  27.4km/h 98% 0.03in /  0.8mm
19:44 36.9 °F /  2.7 °C 37.4 °F /  3.0 °C 29.8in /  1010.0hPa SSW 10.7mph /  17.2km/h 12.5mph /  20.1km/h 98% 0.05in /  1.3mm
19:49 36.9 °F /  2.7 °C 37.4 °F /  3.0 °C 29.8in /  1010.0hPa SSE 4.9mph /  7.9km/h 14.3mph /  23.0km/h 98% 0.05in /  1.3mm
19:54 36.9 °F /  2.7 °C 37.4 °F /  3.0 °C 29.8in /  1010.0hPa SSE 8.5mph /  13.7km/h 14.3mph /  23.0km/h 98% 0.06in /  1.5mm
19:59 36.9 °F /  2.7 °C 37.4 °F /  3.0 °C 29.8in /  1010.0hPa SSE 7.4mph /  11.9km/h 9.8mph /  15.8km/h 98% 0.07in /  1.8mm
20:04 36.9 °F /  2.7 °C 37.4 °F /  3.0 °C 29.8in /  1010.0hPa SSE 7.4mph /  11.9km/h 8.5mph /  13.7km/h 98% 0.07in /  1.8mm
20:09 36.9 °F /  2.7 °C 37.4 °F /  3.0 °C 29.8in /  1010.0hPa SSE 3.6mph /  5.8km/h 7.4mph /  11.9km/h 98% 0.07in /  1.8mm
20:14 36.9 °F /  2.7 °C 37.4 °F /  3.0 °C 29.8in /  1009.0hPa SSE 3.6mph /  5.8km/h 7.4mph /  11.9km/h 98% 0.09in /  2.3mm
20:19 37 °F /  2.8 °C 37.4 °F /  3.0 °C 29.8in /  1009.0hPa SSE 3.6mph /  5.8km/h 3.6mph /  5.8km/h 98% 0.1in /  2.5mm
20:24 37 °F /  2.8 °C 37.4 °F /  3.0 °C 29.8in /  1009.0hPa SSE 3.6mph /  5.8km/h 3.6mph /  5.8km/h 98% 0.11in /  2.8mm
20:30 37 °F /  2.8 °C 37.4 °F /  3.0 °C 29.8in /  1008.0hPa SSE 3.6mph /  5.8km/h 3.6mph /  5.8km/h 98% 0.11in /  2.8mm
20:35 37.2 °F /  2.9 °C 37.4 °F /  3.0 °C 29.8in /  1008.0hPa SSE 3.6mph /  5.8km/h 3.6mph /  5.8km/h 98% 0.12in /  3.0mm
20:40 37.2 °F /  2.9 °C 37.4 °F /  3.0 °C 29.8in /  1008.0hPa SSE 3.6mph /  5.8km/h 3.6mph /  5.8km/h 98% 0.13in /  3.3mm
20:45 37.2 °F /  2.9 °C 37.4 °F /  3.0 °C 29.8in /  1010.0hPa SSE 3.6mph /  5.8km/h 3.6mph /  5.8km/h 98% 0.12in /  3.0mm
20:50 37.4 °F /  3.0 °C 37.4 °F /  3.0 °C 29.8in /  1010.0hPa SSE 3.6mph /  5.8km/h 3.6mph /  5.8km/h 98% 0.15in /  3.8mm
20:55 37.4 °F /  3.0 °C 37.4 °F /  3.0 °C 29.8in /  1010.0hPa SSE 3.6mph /  5.8km/h 3.6mph /  5.8km/h 98% 0.15in /  3.8mm
21:00 37.4 °F /  3.0 °C 37.4 °F /  3.0 °C 29.8in /  1009.0hPa SSE 3.6mph /  5.8km/h 3.6mph /  5.8km/h 98% 0.16in /  4.1mm
21:05 37.4 °F /  3.0 °C 37.4 °F /  3.0 °C 29.8in /  1009.0hPa SSE 3.6mph /  5.8km/h 3.6mph /  5.8km/h 98% 0.16in /  4.1mm
21:10 37.4 °F /  3.0 °C 37.4 °F /  3.0 °C 29.8in /  1009.0hPa South 4.9mph /  7.9km/h 4.9mph /  7.9km/h 98% 0.17in /  4.3mm
21:15 37.4 °F /  3.0 °C 37.4 °F /  3.0 °C 29.8in /  1008.0hPa South 4.9mph /  7.9km/h 4.9mph /  7.9km/h 98% 0.17in /  4.3mm
21:20 37.6 °F /  3.1 °C 37.4 °F /  3.0 °C 29.8in /  1008.0hPa South 4.9mph /  7.9km/h 4.9mph /  7.9km/h 98% 0.16in /  4.1mm
21:25 37.6 °F /  3.1 °C 37.4 °F /  3.0 °C 29.8in /  1008.0hPa South 4.9mph /  7.9km/h 4.9mph /  7.9km/h 98% 0.17in /  4.3mm
21:35 37.6 °F /  3.1 °C 37.4 °F /  3.0 °C 29.8in /  1008.0hPa South 4.9mph /  7.9km/h 4.9mph /  7.9km/h 98% 0.17in /  4.3mm
21:40 37.6 °F /  3.1 °C 37.4 °F /  3.0 °C 29.8in /  1008.0hPa South 4.9mph /  7.9km/h 4.9mph /  7.9km/h 98% 0.17in /  4.3mm
21:45 37.6 °F /  3.1 °C 37.4 °F /  3.0 °C 29.7in /  1007.0hPa South 4.9mph /  7.9km/h 4.9mph /  7.9km/h 98% 0.17in /  4.3mm
21:50 37.8 °F /  3.2 °C 37.4 °F /  3.0 °C 29.7in /  1007.0hPa South 4.9mph /  7.9km/h 4.9mph /  7.9km/h 98% 0.17in /  4.3mm
21:55 37.8 °F /  3.2 °C 37.4 °F /  3.0 °C 29.7in /  1007.0hPa South 4.9mph /  7.9km/h 4.9mph /  7.9km/h 98% 0.17in /  4.3mm
22:01 37.8 °F /  3.2 °C 37.4 °F /  3.0 °C 29.7in /  1007.0hPa South 4.9mph /  7.9km/h 4.9mph /  7.9km/h 98% 0.16in /  4.1mm
22:06 37.9 °F /  3.3 °C 37.4 °F /  3.0 °C 29.7in /  1007.0hPa South 4.9mph /  7.9km/h 4.9mph /  7.9km/h 98% 0.14in /  3.6mm
22:16 37.9 °F /  3.3 °C 37.4 °F /  3.0 °C 29.7in /  1007.0hPa South 4.9mph /  7.9km/h 4.9mph /  7.9km/h 98% 0.11in /  2.8mm
22:21 38.1 °F /  3.4 °C 37.4 °F /  3.0 °C 29.7in /  1007.0hPa South 4.9mph /  7.9km/h 4.9mph /  7.9km/h 98% 0.1in /  2.5mm
22:26 38.1 °F /  3.4 °C 37.4 °F /  3.0 °C 29.7in /  1007.0hPa South 4.9mph /  7.9km/h 4.9mph /  7.9km/h 98% 0.1in /  2.5mm
22:36 38.3 °F /  3.5 °C 39.2 °F /  4.0 °C 29.7in /  1007.0hPa South 4.9mph /  7.9km/h 4.9mph /  7.9km/h 98% 0.06in /  1.5mm
22:41 38.5 °F /  3.6 °C 39.2 °F /  4.0 °C 29.7in /  1007.0hPa South 4.9mph /  7.9km/h 4.9mph /  7.9km/h 98% 0.05in /  1.3mm
22:51 38.5 °F /  3.6 °C 39.2 °F /  4.0 °C 29.7in /  1007.0hPa South 4.9mph /  7.9km/h 4.9mph /  7.9km/h 98% 0.04in /  1.0mm
22:56 38.7 °F /  3.7 °C 39.2 °F /  4.0 °C 29.7in /  1007.0hPa South 4.9mph /  7.9km/h 4.9mph /  7.9km/h 98% 0.04in /  1.0mm
23:11 38.8 °F /  3.8 °C 39.2 °F /  4.0 °C 29.7in /  1007.0hPa SSW 1.3mph /  2.1km/h 1.3mph /  2.1km/h 98% 0.03in /  0.8mm
23:16 39 °F /  3.9 °C 39.2 °F /  4.0 °C 29.7in /  1007.0hPa SSW 1.3mph /  2.1km/h 1.3mph /  2.1km/h 98% 0.03in /  0.8mm
23:21 39.4 °F /  4.1 °C 39.2 °F /  4.0 °C 29.7in /  1007.0hPa SSW 1.3mph /  2.1km/h 1.3mph /  2.1km/h 98% 0.03in /  0.8mm
23:31 39.7 °F /  4.3 °C 39.2 °F /  4.0 °C 29.7in /  1007.0hPa SSW 1.3mph /  2.1km/h 1.3mph /  2.1km/h 98% 0.02in /  0.5mm
23:36 39.7 °F /  4.3 °C 39.2 °F /  4.0 °C 29.7in /  1007.0hPa SSW 1.3mph /  2.1km/h 1.3mph /  2.1km/h 98% 0.02in /  0.5mm
23:46 40.1 °F /  4.5 °C 41 °F /  5.0 °C 29.7in /  1006.0hPa SSW 1.3mph /  2.1km/h 1.3mph /  2.1km/h 98% 0.02in /  0.5mm
23:51 40.3 °F /  4.6 °C 41 °F /  5.0 °C 29.7in /  1006.0hPa SSW 1.3mph /  2.1km/h 1.3mph /  2.1km/h 98% 0.01in /  0.3mm
23:56 40.5 °F /  4.7 °C 41 °F /  5.0 °C 29.7in /  1006.0hPa SSW 1.3mph /  2.1km/h 1.3mph /  2.1km/h 98% 0.02in /  0.5mm
Données Historique de Météo Turbie

Mise a jour : 26/05/2018 16:06:13
Généré par Cumulus 1.9.4 (1099)